createdAt,value
2023-01-30T00:01:27.610Z,60.88
2023-01-30T00:03:55.903Z,59.22
2023-01-30T00:06:24.862Z,57.95
2023-01-30T00:08:53.192Z,56.38
2023-01-30T00:11:22.565Z,59.47
2023-01-30T00:13:51.727Z,56.33
2023-01-30T00:16:20.100Z,50.15
2023-01-30T00:18:48.318Z,49.35
2023-01-30T00:21:16.874Z,42.05
2023-01-30T00:23:45.585Z,41.17
2023-01-30T00:26:14.192Z,37.85
2023-01-30T00:28:43.731Z,39.38
2023-01-30T00:31:11.999Z,39.58
2023-01-30T00:33:40.403Z,39.70
2023-01-30T00:36:09.959Z,50.20
2023-01-30T00:38:38.983Z,56.40
2023-01-30T00:41:10.762Z,58.25
2023-01-30T00:43:57.490Z,58.05
2023-01-30T00:46:47.052Z,63.53
2023-01-30T00:49:15.552Z,65.90
2023-01-30T00:51:47.226Z,61.03
2023-01-30T00:54:15.598Z,69.45
2023-01-30T00:56:43.858Z,62.22
2023-01-30T00:59:12.010Z,63.83
2023-01-30T01:01:40.527Z,63.45
2023-01-30T01:04:10.485Z,60.13
2023-01-30T01:06:39.543Z,68.85
2023-01-30T01:09:08.352Z,65.88
2023-01-30T01:11:39.073Z,64.18
2023-01-30T01:14:08.201Z,63.28
2023-01-30T01:16:36.882Z,62.28
2023-01-30T01:19:05.256Z,66.53
2023-01-30T01:21:33.451Z,63.85
2023-01-30T01:24:01.823Z,54.47
2023-01-30T01:26:30.248Z,59.70
2023-01-30T01:28:59.867Z,62.33
2023-01-30T01:31:28.165Z,59.45
2023-01-30T01:33:57.653Z,53.65
2023-01-30T01:36:53.122Z,54.70
2023-01-30T01:39:17.641Z,52.65
2023-01-30T01:41:46.094Z,52.30
2023-01-30T01:44:17.276Z,49.72
2023-01-30T01:46:48.410Z,51.92
2023-01-30T01:49:28.181Z,45.85
2023-01-30T01:52:17.094Z,44.50
2023-01-30T01:55:04.779Z,47.28
2023-01-30T01:57:48.118Z,46.25
2023-01-30T02:00:21.938Z,38.97
2023-01-30T02:03:09.043Z,41.85
2023-01-30T02:05:42.252Z,41.33
2023-01-30T02:08:24.815Z,44.58
2023-01-30T02:11:03.349Z,54.73
2023-01-30T02:13:32.323Z,58.90
2023-01-30T02:16:05.031Z,58.90
2023-01-30T02:18:36.217Z,70.00
2023-01-30T02:21:42.033Z,62.30
2023-01-30T02:24:35.226Z,64.20
2023-01-30T02:27:15.009Z,59.78
2023-01-30T02:30:10.616Z,66.75
2023-01-30T02:32:50.873Z,61.78
2023-01-30T02:35:29.000Z,55.83
2023-01-30T02:38:45.974Z,60.47
2023-01-30T02:41:39.144Z,44.92
2023-01-30T02:44:27.047Z,47.95
2023-01-30T02:47:08.958Z,47.92
2023-01-30T02:49:42.418Z,41.65
2023-01-30T02:52:12.852Z,44.95
2023-01-30T02:54:41.051Z,46.25
2023-01-30T02:57:23.432Z,43.47
2023-01-30T03:00:02.188Z,46.33
2023-01-30T03:02:52.053Z,51.22
2023-01-30T03:05:47.560Z,55.33
2023-01-30T03:08:31.845Z,54.53
2023-01-30T03:11:08.478Z,55.50
2023-01-30T03:14:03.178Z,56.72
2023-01-30T03:16:38.982Z,54.20
2023-01-30T03:19:12.296Z,54.22
2023-01-30T03:21:45.209Z,58.22
2023-01-30T03:26:54.440Z,55.33
2023-01-30T03:29:23.666Z,53.00
2023-01-30T03:31:54.298Z,55.95
2023-01-30T03:34:22.729Z,54.08
2023-01-30T03:36:51.288Z,57.58
2023-01-30T03:39:19.765Z,59.45
2023-01-30T03:41:47.995Z,58.75
2023-01-30T03:44:18.538Z,61.42
2023-01-30T03:46:48.020Z,50.05
2023-01-30T03:49:16.321Z,51.50
2023-01-30T03:51:44.532Z,56.08
2023-01-30T03:54:12.810Z,50.63
2023-01-30T03:56:40.970Z,49.10
2023-01-30T03:59:09.192Z,48.35
2023-01-30T04:01:42.995Z,49.38
2023-01-30T04:04:12.303Z,45.50
2023-01-30T04:06:40.667Z,44.28
2023-01-30T04:09:08.886Z,48.13
2023-01-30T04:11:46.752Z,42.40
2023-01-30T04:14:14.897Z,49.00
2023-01-30T04:17:06.055Z,48.85
2023-01-30T04:19:40.171Z,47.55
2023-01-30T04:22:08.548Z,49.15
2023-01-30T04:24:37.278Z,51.83
2023-01-30T04:27:05.595Z,44.03
2023-01-30T04:29:38.121Z,49.67
2023-01-30T04:32:09.793Z,51.15
2023-01-30T04:34:39.370Z,44.50
2023-01-30T04:37:07.601Z,47.85
2023-01-30T04:39:35.756Z,43.58
2023-01-30T04:42:04.659Z,44.58
2023-01-30T04:44:40.145Z,45.90
2023-01-30T04:47:19.205Z,44.58
2023-01-30T04:49:47.555Z,43.38
2023-01-30T04:52:17.143Z,46.30
2023-01-30T04:54:45.371Z,49.75
2023-01-30T04:57:13.575Z,55.95
2023-01-30T04:59:42.327Z,58.97
2023-01-30T05:02:13.915Z,55.53
2023-01-30T05:04:42.304Z,64.25
2023-01-30T05:07:11.885Z,69.30
2023-01-30T05:09:40.086Z,68.22
2023-01-30T05:12:08.348Z,66.05
2023-01-30T05:14:36.536Z,62.60
2023-01-30T05:17:04.774Z,58.17
2023-01-30T05:19:32.962Z,58.28
2023-01-30T05:22:01.170Z,61.13
2023-01-30T05:24:29.384Z,50.63
2023-01-30T05:26:57.525Z,53.63
2023-01-30T05:29:25.712Z,53.72
2023-01-30T05:31:53.892Z,56.42
2023-01-30T05:34:22.114Z,49.80
2023-01-30T05:36:50.347Z,49.90
2023-01-30T05:39:18.549Z,51.83
2023-01-30T05:41:46.754Z,45.13
2023-01-30T05:44:15.025Z,55.67
2023-01-30T05:46:43.567Z,46.08
2023-01-30T05:49:11.768Z,50.42
2023-01-30T05:51:40.015Z,49.83
2023-01-30T05:54:08.692Z,55.97
2023-01-30T05:56:37.031Z,51.80
2023-01-30T05:59:05.313Z,48.28
2023-01-30T06:01:33.599Z,50.97
2023-01-30T06:04:02.973Z,51.47
2023-01-30T06:06:31.263Z,49.10
2023-01-30T06:09:02.650Z,53.55
2023-01-30T06:11:31.285Z,48.78
2023-01-30T06:13:59.459Z,50.75
2023-01-30T06:16:27.751Z,49.88
2023-01-30T06:18:55.908Z,52.47
2023-01-30T06:21:24.121Z,52.47
2023-01-30T06:23:52.361Z,51.50
2023-01-30T06:26:20.630Z,56.72
2023-01-30T06:28:49.869Z,48.50
2023-01-30T06:31:19.078Z,51.63
2023-01-30T06:33:51.582Z,51.95
2023-01-30T06:36:19.790Z,54.42
2023-01-30T06:38:48.784Z,48.10
2023-01-30T06:41:16.976Z,54.22
2023-01-30T06:43:45.323Z,46.03
2023-01-30T06:46:13.711Z,50.28
2023-01-30T06:48:42.012Z,47.90
2023-01-30T06:51:10.348Z,49.22
2023-01-30T06:53:38.587Z,43.95
2023-01-30T06:56:07.119Z,48.60
2023-01-30T06:58:35.295Z,49.75
2023-01-30T07:01:03.577Z,47.58
2023-01-30T07:03:31.810Z,49.75
2023-01-30T07:05:59.975Z,50.20
2023-01-30T07:08:28.194Z,44.60
2023-01-30T07:10:56.445Z,45.28
2023-01-30T07:13:24.644Z,43.97
2023-01-30T07:15:52.918Z,39.28
2023-01-30T07:18:21.105Z,48.05
2023-01-30T07:20:49.782Z,42.22
2023-01-30T07:23:18.199Z,42.20
2023-01-30T07:25:46.440Z,52.60
2023-01-30T07:28:14.661Z,46.75
2023-01-30T07:30:42.950Z,45.20
2023-01-30T07:33:11.203Z,53.63
2023-01-30T07:35:39.448Z,46.30
2023-01-30T07:38:07.672Z,46.88
2023-01-30T07:40:35.993Z,41.78
2023-01-30T07:43:06.949Z,41.80
2023-01-30T07:45:41.601Z,40.22
2023-01-30T07:48:12.923Z,42.53
2023-01-30T07:50:41.598Z,34.97
2023-01-30T07:53:15.029Z,39.45
2023-01-30T07:55:43.519Z,37.20
2023-01-30T07:58:14.959Z,36.35
2023-01-30T08:00:43.728Z,51.53
2023-01-30T08:03:16.878Z,48.53
2023-01-30T08:08:16.297Z,46.13
2023-01-30T08:10:44.569Z,45.78
2023-01-30T08:13:12.739Z,52.72
2023-01-30T08:15:40.962Z,52.90
2023-01-30T08:18:09.232Z,52.22
2023-01-30T08:20:37.514Z,50.15
2023-01-30T08:23:05.882Z,48.15
2023-01-30T08:25:37.326Z,43.95
2023-01-30T08:28:05.777Z,39.85
2023-01-30T08:30:34.077Z,41.35
2023-01-30T08:33:02.226Z,41.33
2023-01-30T08:35:30.437Z,43.67
2023-01-30T08:37:58.675Z,44.72
2023-01-30T08:40:27.047Z,42.47
2023-01-30T08:42:55.281Z,46.80
2023-01-30T08:45:23.610Z,40.22
2023-01-30T08:47:51.778Z,47.20
2023-01-30T08:50:20.337Z,51.30
2023-01-30T08:52:48.808Z,56.35
2023-01-30T08:55:18.100Z,54.88
2023-01-30T08:57:46.623Z,49.63
2023-01-30T09:00:18.423Z,47.67
2023-01-30T09:02:46.852Z,52.20
2023-01-30T09:05:18.127Z,60.17
2023-01-30T09:07:46.540Z,48.35
2023-01-30T09:10:14.918Z,45.05
2023-01-30T09:12:43.233Z,49.08
2023-01-30T09:15:11.534Z,44.83
2023-01-30T09:17:40.127Z,58.58
2023-01-30T09:20:09.859Z,47.88
2023-01-30T09:22:38.776Z,44.03
2023-01-30T09:25:08.333Z,40.60
2023-01-30T09:27:37.044Z,51.60
2023-01-30T09:30:06.498Z,47.00
2023-01-30T09:32:37.619Z,43.00
2023-01-30T09:35:06.213Z,41.65
2023-01-30T09:37:34.791Z,43.50
2023-01-30T09:40:03.206Z,32.08
2023-01-30T09:42:38.237Z,34.05
2023-01-30T09:45:24.362Z,33.95
2023-01-30T09:48:27.550Z,38.25
2023-01-30T09:51:22.250Z,42.17
2023-01-30T09:56:28.555Z,43.38
2023-01-30T09:58:59.292Z,44.15
2023-01-30T10:01:48.551Z,46.42
2023-01-30T10:04:34.732Z,46.03
2023-01-30T10:07:32.310Z,45.30
2023-01-30T10:10:10.449Z,43.05
2023-01-30T10:13:04.909Z,41.25
2023-01-30T10:16:07.585Z,42.67
2023-01-30T10:18:54.265Z,37.03
2023-01-30T10:21:49.211Z,35.95
2023-01-30T10:24:44.380Z,38.10
2023-01-30T10:27:17.813Z,32.00
2023-01-30T10:29:53.058Z,37.85
2023-01-30T10:32:23.912Z,35.92
2023-01-30T10:34:55.638Z,33.47
2023-01-30T10:37:56.101Z,32.88
2023-01-30T10:40:39.839Z,34.80
2023-01-30T10:43:33.015Z,39.70
2023-01-30T10:46:23.707Z,42.85
2023-01-30T10:49:13.568Z,40.05
2023-01-30T10:52:07.618Z,44.88
2023-01-30T10:54:53.280Z,50.65
2023-01-30T10:57:36.506Z,49.55
2023-01-30T11:00:15.612Z,56.70
2023-01-30T11:03:09.604Z,58.13
2023-01-30T11:05:53.163Z,66.75
2023-01-30T11:10:52.419Z,63.03
2023-01-30T11:13:26.699Z,67.10
2023-01-30T11:15:59.752Z,65.68
2023-01-30T11:19:17.089Z,66.97
2023-01-30T11:21:42.081Z,67.57
2023-01-30T11:24:23.799Z,69.45
2023-01-30T11:26:53.429Z,72.22
2023-01-30T11:29:33.417Z,70.50
2023-01-30T11:32:05.537Z,68.82
2023-01-30T11:34:33.876Z,66.78
2023-01-30T11:37:25.303Z,73.53
2023-01-30T11:40:18.447Z,74.72
2023-01-30T11:42:49.759Z,67.03
2023-01-30T11:45:19.764Z,69.28
2023-01-30T11:48:23.536Z,70.43
2023-01-30T11:51:04.571Z,71.03
2023-01-30T11:54:12.281Z,69.78
2023-01-30T11:56:52.942Z,63.08
2023-01-30T11:59:21.119Z,69.55
2023-01-30T12:01:49.711Z,70.68
2023-01-30T12:04:20.168Z,71.22
2023-01-30T12:07:19.609Z,69.63
2023-01-30T12:09:51.836Z,66.85
2023-01-30T12:12:47.931Z,65.30
2023-01-30T12:15:30.059Z,60.65
2023-01-30T12:18:05.185Z,68.80
2023-01-30T12:20:55.249Z,63.17
2023-01-30T12:23:40.778Z,60.10
2023-01-30T12:26:25.729Z,57.08
2023-01-30T12:29:20.193Z,64.00
2023-01-30T12:32:11.501Z,57.38
2023-01-30T12:34:39.844Z,59.80
2023-01-30T12:37:29.159Z,57.55
2023-01-30T12:40:19.761Z,57.85
2023-01-30T12:43:26.471Z,56.42
2023-01-30T12:46:01.491Z,55.80
2023-01-30T12:49:12.311Z,48.83
2023-01-30T12:52:13.271Z,58.13
2023-01-30T12:55:05.509Z,50.78
2023-01-30T12:57:56.646Z,48.10
2023-01-30T13:00:30.359Z,45.50
2023-01-30T13:03:01.433Z,49.20
2023-01-30T13:06:00.684Z,42.38
2023-01-30T13:08:34.780Z,46.97
2023-01-30T13:11:33.925Z,46.33
2023-01-30T13:14:15.994Z,56.25
2023-01-30T13:17:09.010Z,41.80
2023-01-30T13:19:58.048Z,50.90
2023-01-30T13:22:31.923Z,52.90
2023-01-30T13:25:03.607Z,49.95
2023-01-30T13:27:37.127Z,53.95
2023-01-30T13:30:10.541Z,51.67
2023-01-30T13:32:51.812Z,53.92
2023-01-30T13:35:23.186Z,50.20
2023-01-30T13:37:52.820Z,65.70
2023-01-30T13:40:38.644Z,53.65
2023-01-30T13:43:29.541Z,53.88
2023-01-30T13:46:08.121Z,56.05
2023-01-30T13:49:22.489Z,52.47
2023-01-30T13:52:02.789Z,52.00
2023-01-30T13:54:46.017Z,53.08
2023-01-30T13:57:15.455Z,55.03
2023-01-30T14:00:01.812Z,49.05
2023-01-30T14:03:06.113Z,53.70
2023-01-30T14:05:57.359Z,51.92
2023-01-30T14:08:45.022Z,51.28
2023-01-30T14:11:52.127Z,51.40
2023-01-30T14:14:25.556Z,53.40
2023-01-30T14:17:12.529Z,54.75
2023-01-30T14:19:44.300Z,49.47
2023-01-30T14:22:24.558Z,50.47
2023-01-30T14:25:22.328Z,55.22
2023-01-30T14:27:55.170Z,54.92
2023-01-30T14:30:39.213Z,52.38
2023-01-30T14:33:36.158Z,50.13
2023-01-30T14:36:07.620Z,56.85
2023-01-30T14:38:38.569Z,55.25
2023-01-30T14:41:09.733Z,53.00
2023-01-30T14:43:44.191Z,56.58
2023-01-30T14:46:18.531Z,57.33
2023-01-30T14:49:05.297Z,52.65
2023-01-30T14:51:44.603Z,57.13
2023-01-30T14:54:13.284Z,58.10
2023-01-30T14:56:51.459Z,54.83
2023-01-30T14:59:37.985Z,49.47
2023-01-30T15:02:15.542Z,57.22
2023-01-30T15:05:03.075Z,56.83
2023-01-30T15:07:43.316Z,51.97
2023-01-30T15:10:32.538Z,54.58
2023-01-30T15:13:14.356Z,59.40
2023-01-30T15:16:00.753Z,59.67
2023-01-30T15:19:04.947Z,54.45
2023-01-30T15:24:44.717Z,60.55
2023-01-30T15:27:52.264Z,63.60
2023-01-30T15:30:59.119Z,68.57
2023-01-30T15:33:31.409Z,68.18
2023-01-30T15:36:19.081Z,70.07
2023-01-30T15:38:55.561Z,69.25
2023-01-30T15:41:23.956Z,71.07
2023-01-30T15:44:19.345Z,77.10
2023-01-30T15:47:22.834Z,69.20
2023-01-30T15:49:59.576Z,79.13
2023-01-30T15:52:40.145Z,67.93
2023-01-30T15:55:20.162Z,76.40
2023-01-30T15:57:58.840Z,75.22
2023-01-30T16:00:34.148Z,80.90
2023-01-30T16:03:04.758Z,75.22
2023-01-30T16:08:18.799Z,73.03
2023-01-30T16:10:47.345Z,85.80
2023-01-30T16:13:15.630Z,76.45
2023-01-30T16:15:50.371Z,72.68
2023-01-30T16:18:21.668Z,76.80
2023-01-30T16:21:18.651Z,71.47
2023-01-30T16:24:07.728Z,75.95
2023-01-30T16:26:40.888Z,69.03
2023-01-30T16:29:20.818Z,70.95
2023-01-30T16:31:50.706Z,80.13
2023-01-30T16:34:31.816Z,82.03
2023-01-30T16:37:07.818Z,84.15
2023-01-30T16:39:37.839Z,85.65
2023-01-30T16:42:24.223Z,91.80
2023-01-30T16:44:58.971Z,90.95
2023-01-30T16:47:31.590Z,88.60
2023-01-30T16:50:00.477Z,91.18
2023-01-30T16:52:36.943Z,92.30
2023-01-30T16:55:17.941Z,89.13
2023-01-30T16:57:56.068Z,82.80
2023-01-30T17:00:32.564Z,93.10
2023-01-30T17:03:03.969Z,95.32
2023-01-30T17:05:42.262Z,91.38
2023-01-30T17:08:49.672Z,107.85
2023-01-30T17:11:38.807Z,114.05
2023-01-30T17:14:26.163Z,107.93
2023-01-30T17:17:03.552Z,112.03
2023-01-30T17:19:33.137Z,105.65
2023-01-30T17:22:05.346Z,110.88
2023-01-30T17:24:37.048Z,104.45
2023-01-30T17:27:08.808Z,101.78
2023-01-30T17:29:44.993Z,111.85
2023-01-30T17:32:18.056Z,110.50
2023-01-30T17:34:46.527Z,106.43
2023-01-30T17:37:18.302Z,99.95
2023-01-30T17:39:47.888Z,92.78
2023-01-30T17:42:23.437Z,90.18
2023-01-30T17:44:52.311Z,95.45
2023-01-30T17:47:22.573Z,95.03
2023-01-30T17:49:52.172Z,97.78
2023-01-30T17:52:20.338Z,103.32
2023-01-30T17:54:48.520Z,100.35
2023-01-30T17:57:16.993Z,101.70
2023-01-30T17:59:45.195Z,98.78
2023-01-30T18:02:13.763Z,96.57
2023-01-30T18:04:41.947Z,109.10
2023-01-30T18:07:14.705Z,103.53
2023-01-30T18:09:44.019Z,103.70
2023-01-30T18:12:12.191Z,96.78
2023-01-30T18:14:40.423Z,104.80
2023-01-30T18:17:10.866Z,95.70
2023-01-30T18:19:39.898Z,104.22
2023-01-30T18:22:09.092Z,103.45
2023-01-30T18:24:37.588Z,101.18
2023-01-30T18:27:05.902Z,108.50
2023-01-30T18:29:34.099Z,114.65
2023-01-30T18:32:05.814Z,114.50
2023-01-30T18:34:34.146Z,102.63
2023-01-30T18:37:02.366Z,110.97
2023-01-30T18:39:31.937Z,110.32
2023-01-30T18:42:02.126Z,107.68
2023-01-30T18:44:30.487Z,109.18
2023-01-30T18:46:58.801Z,102.90
2023-01-30T18:49:27.047Z,114.45
2023-01-30T18:51:55.267Z,109.93
2023-01-30T18:54:23.463Z,105.15
2023-01-30T18:56:51.869Z,105.45
2023-01-30T18:59:20.138Z,114.40
2023-01-30T19:01:48.453Z,116.43
2023-01-30T19:04:16.795Z,100.55
2023-01-30T19:06:45.833Z,107.97
2023-01-30T19:09:16.737Z,117.38
2023-01-30T19:12:04.114Z,101.07
2023-01-30T19:14:32.367Z,106.72
2023-01-30T19:17:00.570Z,113.47
2023-01-30T19:19:28.785Z,107.22
2023-01-30T19:21:57.071Z,112.18
2023-01-30T19:24:25.314Z,111.22
2023-01-30T19:26:53.575Z,105.22
2023-01-30T19:29:21.861Z,106.45
2023-01-30T19:31:50.242Z,106.35
2023-01-30T19:34:18.679Z,104.47
2023-01-30T19:36:47.292Z,112.13
2023-01-30T19:39:18.516Z,105.93
2023-01-30T19:41:46.701Z,109.78
2023-01-30T19:44:14.891Z,104.72
2023-01-30T19:46:43.293Z,103.82
2023-01-30T19:49:12.403Z,111.03
2023-01-30T19:51:41.841Z,104.43
2023-01-30T19:54:35.913Z,110.78
2023-01-30T19:57:04.175Z,101.18
2023-01-30T19:59:32.394Z,105.28
2023-01-30T20:02:00.711Z,104.30
2023-01-30T20:04:29.005Z,106.50
2023-01-30T20:06:57.175Z,102.57
2023-01-30T20:09:25.399Z,102.03
2023-01-30T20:11:53.612Z,108.18
2023-01-30T20:14:21.827Z,98.57
2023-01-30T20:16:51.105Z,111.22
2023-01-30T20:19:19.357Z,107.90
2023-01-30T20:21:47.668Z,102.97
2023-01-30T20:24:16.728Z,110.88
2023-01-30T20:26:48.226Z,113.65
2023-01-30T20:29:18.024Z,110.38
2023-01-30T20:31:46.881Z,107.35
2023-01-30T20:34:15.587Z,109.30
2023-01-30T20:36:43.860Z,111.90
2023-01-30T20:39:12.470Z,104.82
2023-01-30T20:41:41.070Z,113.45
2023-01-30T20:44:12.324Z,112.97
2023-01-30T20:46:43.581Z,109.93
2023-01-30T20:49:20.919Z,117.30
2023-01-30T20:51:53.694Z,106.22
2023-01-30T20:54:23.884Z,112.85
2023-01-30T20:56:53.804Z,114.80
2023-01-30T20:59:24.414Z,106.20
2023-01-30T21:01:53.855Z,104.40
2023-01-30T21:04:24.245Z,106.53
2023-01-30T21:06:52.983Z,113.47
2023-01-30T21:09:23.508Z,113.07
2023-01-30T21:11:53.329Z,108.78
2023-01-30T21:14:21.671Z,115.38
2023-01-30T21:16:50.140Z,107.35
2023-01-30T21:19:18.510Z,111.90
2023-01-30T21:21:53.510Z,113.35
2023-01-30T21:24:27.826Z,108.05
2023-01-30T21:26:56.808Z,107.38
2023-01-30T21:29:27.432Z,104.25
2023-01-30T21:31:57.720Z,110.53
2023-01-30T21:34:26.380Z,112.70
2023-01-30T21:37:13.200Z,116.97
2023-01-30T21:39:59.772Z,120.22
2023-01-30T21:42:46.801Z,116.00
2023-01-30T21:45:15.568Z,113.90
2023-01-30T21:47:43.809Z,114.13
2023-01-30T21:50:12.195Z,122.72
2023-01-30T21:52:40.487Z,119.25
2023-01-30T21:55:09.297Z,116.32
2023-01-30T21:57:37.694Z,117.10
2023-01-30T22:00:06.677Z,113.90
2023-01-30T22:02:34.804Z,112.25
2023-01-30T22:05:03.004Z,115.78
2023-01-30T22:07:32.180Z,115.63
2023-01-30T22:10:02.235Z,119.10
2023-01-30T22:12:32.118Z,113.03
2023-01-30T22:15:00.254Z,119.18
2023-01-30T22:17:28.513Z,124.25
2023-01-30T22:19:56.795Z,113.20
2023-01-30T22:22:26.476Z,107.70
2023-01-30T22:24:54.856Z,107.07
2023-01-30T22:27:23.038Z,123.25
2023-01-30T22:29:51.645Z,120.10
2023-01-30T22:32:19.948Z,112.80
2023-01-30T22:34:48.154Z,106.82
2023-01-30T22:37:19.062Z,111.72
2023-01-30T22:39:47.247Z,115.82
2023-01-30T22:42:15.466Z,113.70
2023-01-30T22:44:44.022Z,109.40
2023-01-30T22:47:12.218Z,110.88
2023-01-30T22:49:40.436Z,110.65
2023-01-30T22:52:08.743Z,116.20
2023-01-30T22:54:37.217Z,114.05
2023-01-30T22:57:05.488Z,118.18
2023-01-30T22:59:33.733Z,113.28
2023-01-30T23:02:02.144Z,111.10
2023-01-30T23:04:30.343Z,120.60
2023-01-30T23:06:59.689Z,110.35
2023-01-30T23:09:27.986Z,104.80
2023-01-30T23:12:16.083Z,116.63
2023-01-30T23:14:45.119Z,119.38
2023-01-30T23:17:32.050Z,121.85
2023-01-30T23:20:00.272Z,126.97
2023-01-30T23:22:28.976Z,118.00
2023-01-30T23:24:57.174Z,118.10
2023-01-30T23:27:25.399Z,122.30
2023-01-30T23:29:53.591Z,114.60
2023-01-30T23:32:23.554Z,121.50
2023-01-30T23:34:52.362Z,122.65
2023-01-30T23:37:41.441Z,120.90
2023-01-30T23:40:10.468Z,116.78
2023-01-30T23:42:38.834Z,112.68
2023-01-30T23:45:07.642Z,114.13
2023-01-30T23:47:36.323Z,112.75
2023-01-30T23:50:04.742Z,115.78
2023-01-30T23:52:32.979Z,108.20
2023-01-30T23:55:01.149Z,113.85
2023-01-30T23:57:29.394Z,117.18
2023-01-30T23:59:57.584Z,117.90
